マドリード/バラハス の空港の天気 - METARとTAF

マドリード・バラハス国際空港 ( LEMD / MAD ) - スペイン マドリード
飛行場実況気象(Metar)
観測時間04/26 13:00 CEST (04/26 11:00 UTC)
風向・風速南南西 1m/s
視程10km以上
天気現象
なし
気温22℃
湿度53%
気圧1018hPa
METARLEMD 261100Z 21002KT CAVOK 22/12 Q1018 NOSIG
過去の天気等 Google飛行場航空写真 Wunderground天気予報

過去48時間のMETAR

飛行場予報(TAF)
発表時間: 4/26 07:00 CEST (4/26 05:00 UTC)
予報対象時間: 26日8時 CEST ~ 27日14時 CEST
風向・風速北東 3m/s
視程10km以上
なし
26日14時 CEST ~ 26日21時 CEST に 確率 40% で一時的に
少しの塔状積雲 雲底高度 1,370m
26日14時 CEST ~ 27日8時 CEST に 確率 40% で一時的に
風向・風速南西 4m/s 瞬間風速 9m/s
27日12時 CEST ~ 27日14時 CEST に徐々に
風向・風速南西 5m/s
TAF LEMD 260500Z 2606/2712 05006KT CAVOK TX26/2615Z TN10/2606Z
PROB40 TEMPO 2612/2619 FEW045TCU
PROB40 TEMPO 2612/2706 22008G18KT
BECMG 2710/2712 22010KT